Time;durP1;ratioP1;P1;durP2;ratioP2;P2;SDS_P1;SDS_P2;PMS_P1;PMS_P2;Temp;Humidity;BMP_temperature;BMP_pressure;BME280_temperature;BME280_humidity;BME280_pressure;Samples;Min_cycle;Max_cycle;Signal;HPM_P1;HPM_P2
2023/09/27 00:00:10;;;;;;;19.40;14.98;;;14.70;99.90;;;;;;6187906;23;20047;-85
2023/09/27 00:02:40;;;;;;;21.02;14.88;;;14.70;99.90;;;;;;6187535;23;20052;-87
2023/09/27 00:05:07;;;;;;;22.92;18.02;;;14.70;99.90;;;;;;6161632;23;20381;-86
2023/09/27 00:07:40;;;;;;;22.30;17.80;;;14.80;99.90;;;;;;6186471;23;20949;-86
2023/09/27 00:10:11;;;;;;;19.92;15.35;;;14.90;99.90;;;;;;6163060;23;20028;-86
2023/09/27 00:12:37;;;;;;;18.98;14.23;;;14.70;99.90;;;;;;6187530;23;20095;-87
2023/09/27 00:15:05;;;;;;;20.40;13.20;;;14.70;99.90;;;;;;6162626;23;20027;-86
2023/09/27 00:17:32;;;;;;;19.50;15.15;;;14.60;99.90;;;;;;6187875;23;20024;-87
2023/09/27 00:19:57;;;;;;;18.08;14.35;;;14.60;99.90;;;;;;6188380;23;20051;-86
2023/09/27 00:22:27;;;;;;;18.10;14.27;;;14.60;99.90;;;;;;6215286;23;20016;-86
2023/09/27 00:24:52;;;;;;;20.52;14.35;;;14.50;99.90;;;;;;6187887;23;20032;-86
2023/09/27 00:27:18;;;;;;;18.42;14.60;;;14.50;99.90;;;;;;6187015;23;20353;-85
2023/09/27 00:29:45;;;;;;;19.45;14.57;;;14.50;99.90;;;;;;6187094;23;20349;-86
2023/09/27 00:32:12;;;;;;;17.65;14.00;;;14.40;99.90;;;;;;6187083;23;20449;-87
2023/09/27 00:34:38;;;;;;;17.70;14.13;;;14.50;99.90;;;;;;6214298;23;20449;-86
2023/09/27 00:37:04;;;;;;;19.85;15.35;;;14.50;99.90;;;;;;6186916;23;20066;-86
2023/09/27 00:39:30;;;;;;;22.40;15.65;;;14.50;99.90;;;;;;6187178;23;20027;-87
2023/09/27 00:41:55;;;;;;;21.13;14.43;;;14.40;99.90;;;;;;6214450;23;20008;-86
2023/09/27 00:44:22;;;;;;;23.15;15.98;;;14.40;99.90;;;;;;6162203;23;20078;-86
2023/09/27 00:46:48;;;;;;;20.55;15.85;;;14.40;99.90;;;;;;6187292;23;20074;-87
2023/09/27 00:49:15;;;;;;;19.35;15.68;;;14.40;99.90;;;;;;6187435;23;20051;-85
2023/09/27 00:51:42;;;;;;;22.80;15.88;;;14.40;99.90;;;;;;6187766;23;20031;-86
2023/09/27 00:54:09;;;;;;;20.20;16.00;;;14.40;99.90;;;;;;6213860;23;20411;-85
2023/09/27 00:56:35;;;;;;;23.65;16.38;;;14.40;99.90;;;;;;6214099;23;20020;-87
2023/09/27 00:59:01;;;;;;;22.27;16.25;;;14.40;99.90;;;;;;6214401;23;20017;-86
2023/09/27 01:01:27;;;;;;;24.10;16.52;;;14.40;99.90;;;;;;6214909;23;20513;-87
2023/09/27 01:03:53;;;;;;;20.85;16.08;;;14.40;99.90;;;;;;6188552;23;20025;-86
2023/09/27 01:06:23;;;;;;;21.92;16.17;;;14.30;99.90;;;;;;6187963;23;20361;-86
2023/09/27 01:08:49;;;;;;;24.88;16.75;;;14.30;99.90;;;;;;6162555;23;20019;-86
2023/09/27 01:11:16;;;;;;;25.30;17.13;;;14.30;99.90;;;;;;6187660;23;20044;-86
2023/09/27 01:13:42;;;;;;;22.55;17.75;;;14.30;99.90;;;;;;6186564;23;20444;-85
2023/09/27 01:16:07;;;;;;;23.25;17.67;;;14.30;99.90;;;;;;6187253;23;20150;-84
2023/09/27 01:18:33;;;;;;;23.63;17.77;;;14.30;99.90;;;;;;6186756;23;20467;-86
2023/09/27 01:21:00;;;;;;;22.23;17.95;;;14.20;99.90;;;;;;6213715;23;20043;-86
2023/09/27 01:23:25;;;;;;;22.02;16.83;;;14.20;99.90;;;;;;6187885;23;20029;-87
2023/09/27 01:25:59;;;;;;;22.60;17.42;;;14.20;99.90;;;;;;6216295;23;20032;-85
2023/09/27 01:28:26;;;;;;;21.85;16.88;;;14.20;99.90;;;;;;6164625;23;20044;-86
2023/09/27 01:30:51;;;;;;;23.48;17.88;;;14.20;99.90;;;;;;6187968;23;20043;-84
2023/09/27 01:33:17;;;;;;;23.17;18.10;;;14.20;99.90;;;;;;6162344;23;20428;-84
2023/09/27 01:35:44;;;;;;;22.88;16.85;;;14.20;99.90;;;;;;6187359;23;20087;-82
2023/09/27 01:38:12;;;;;;;22.73;17.45;;;14.10;99.90;;;;;;6213518;23;20070;-87
2023/09/27 01:40:40;;;;;;;23.67;17.35;;;14.10;99.90;;;;;;6186457;23;20028;-85
2023/09/27 01:43:06;;;;;;;27.83;19.00;;;14.10;99.90;;;;;;6213418;23;20066;-84
2023/09/27 01:45:32;;;;;;;26.13;19.60;;;14.00;99.90;;;;;;6186821;23;20680;-84
2023/09/27 01:47:59;;;;;;;27.42;20.45;;;14.00;99.90;;;;;;6214016;23;20012;-85
2023/09/27 01:50:26;;;;;;;25.50;19.07;;;14.00;99.90;;;;;;6213167;23;20017;-83
2023/09/27 01:52:52;;;;;;;26.92;20.60;;;14.00;99.90;;;;;;6186857;23;20094;-84
2023/09/27 01:55:18;;;;;;;28.20;19.48;;;14.00;99.90;;;;;;6186477;23;20122;-82
2023/09/27 01:57:47;;;;;;;24.73;18.33;;;14.00;99.90;;;;;;6186520;23;20024;-87
2023/09/27 02:00:14;;;;;;;27.85;19.98;;;14.00;99.90;;;;;;6213121;23;20504;-83
2023/09/27 02:02:41;;;;;;;23.95;17.67;;;14.00;99.90;;;;;;6186611;23;20066;-86
2023/09/27 02:05:08;;;;;;;24.92;19.05;;;14.00;99.90;;;;;;6161710;23;20016;-84
2023/09/27 02:07:34;;;;;;;24.25;18.30;;;14.00;99.90;;;;;;6161816;23;20448;-84
2023/09/27 02:10:00;;;;;;;26.17;19.02;;;14.00;99.90;;;;;;6213347;23;20140;-84
2023/09/27 02:12:25;;;;;;;25.35;18.23;;;13.90;99.90;;;;;;6213577;23;20020;-87
2023/09/27 02:14:51;;;;;;;24.73;17.90;;;13.90;99.90;;;;;;6186326;23;20020;-86
2023/09/27 02:17:17;;;;;;;28.20;19.55;;;13.90;99.90;;;;;;6213349;23;20028;-84
2023/09/27 02:19:42;;;;;;;26.00;19.15;;;13.90;99.90;;;;;;6186595;23;20044;-84
2023/09/27 02:22:08;;;;;;;25.55;18.25;;;13.90;99.90;;;;;;6161750;23;20035;-84
2023/09/27 02:24:34;;;;;;;26.98;19.48;;;13.90;99.90;;;;;;6186217;23;20020;-83
2023/09/27 02:27:00;;;;;;;25.73;19.48;;;13.90;99.90;;;;;;6186116;23;20038;-85
2023/09/27 02:29:26;;;;;;;24.65;18.55;;;13.80;99.90;;;;;;6213031;23;20027;-84
2023/09/27 02:31:52;;;;;;;24.05;19.08;;;13.80;99.90;;;;;;6186364;23;20032;-83
2023/09/27 02:34:18;;;;;;;25.92;19.02;;;13.80;99.90;;;;;;6213539;23;20063;-84
2023/09/27 02:36:45;;;;;;;31.90;20.08;;;13.80;99.90;;;;;;6212566;23;20052;-83
2023/09/27 02:39:11;;;;;;;27.40;20.00;;;13.70;99.90;;;;;;6213037;23;20021;-84
2023/09/27 02:41:37;;;;;;;29.98;20.10;;;13.70;99.90;;;;;;6186374;23;20388;-84
2023/09/27 02:44:03;;;;;;;22.88;18.65;;;13.70;99.90;;;;;;6212781;23;20024;-84
2023/09/27 02:46:29;;;;;;;25.83;17.98;;;13.70;99.90;;;;;;6185694;23;20052;-83
2023/09/27 02:48:55;;;;;;;23.83;18.58;;;13.70;99.90;;;;;;6186049;23;20023;-83
2023/09/27 02:51:21;;;;;;;24.60;18.13;;;13.70;99.90;;;;;;6212408;23;20344;-85
2023/09/27 02:53:47;;;;;;;23.95;18.50;;;13.70;99.90;;;;;;6185266;23;20094;-84
2023/09/27 02:56:13;;;;;;;25.00;18.50;;;13.70;99.90;;;;;;6185878;23;20127;-83
2023/09/27 02:58:39;;;;;;;24.05;18.85;;;13.60;99.90;;;;;;6212773;23;20020;-84
2023/09/27 03:01:05;;;;;;;23.92;18.77;;;13.60;99.90;;;;;;6185614;23;20017;-84
2023/09/27 03:03:31;;;;;;;21.77;17.60;;;13.60;99.90;;;;;;6212502;23;20087;-83
2023/09/27 03:06:00;;;;;;;24.48;17.77;;;13.60;99.90;;;;;;6211931;23;20096;-82
2023/09/27 03:08:26;;;;;;;23.50;17.65;;;13.60;99.90;;;;;;6212626;23;20020;-85
2023/09/27 03:10:51;;;;;;;24.88;17.60;;;13.60;99.90;;;;;;6185583;23;20059;-83
2023/09/27 03:13:18;;;;;;;23.90;18.73;;;13.60;99.90;;;;;;6185368;23;20028;-84
2023/09/27 03:15:54;;;;;;;24.67;18.73;;;13.50;99.90;;;;;;6160356;23;20074;-82
2023/09/27 03:18:19;;;;;;;28.52;18.90;;;13.50;99.90;;;;;;6212153;23;20016;-84
2023/09/27 03:20:46;;;;;;;24.02;17.45;;;13.50;99.90;;;;;;6212512;23;20441;-82
2023/09/27 03:23:11;;;;;;;26.52;19.02;;;13.50;99.90;;;;;;6212178;23;20021;-83
2023/09/27 03:25:37;;;;;;;25.50;19.13;;;13.50;99.90;;;;;;6185577;23;20031;-83
2023/09/27 03:28:03;;;;;;;24.38;17.08;;;13.50;99.90;;;;;;6185575;23;20021;-83
2023/09/27 03:30:29;;;;;;;23.23;18.55;;;13.50;99.90;;;;;;6212428;23;20020;-82
2023/09/27 03:32:54;;;;;;;29.67;19.10;;;13.50;99.90;;;;;;6160337;23;20060;-80
2023/09/27 03:35:20;;;;;;;27.40;19.35;;;13.50;99.90;;;;;;6185564;23;20044;-83
2023/09/27 03:37:47;;;;;;;28.58;18.65;;;13.50;99.90;;;;;;6185191;23;20394;-83
2023/09/27 03:40:13;;;;;;;26.67;19.20;;;13.50;99.90;;;;;;6212134;23;20071;-83
2023/09/27 03:42:42;;;;;;;25.08;20.13;;;13.40;99.90;;;;;;6185278;23;20017;-83
2023/09/27 03:45:08;;;;;;;27.10;20.00;;;13.40;99.90;;;;;;6212321;23;20456;-84
2023/09/27 03:47:34;;;;;;;29.02;19.55;;;13.40;99.90;;;;;;6212128;23;20017;-83
2023/09/27 03:49:59;;;;;;;23.77;18.73;;;13.40;99.90;;;;;;6212376;23;20059;-82
2023/09/27 03:52:25;;;;;;;27.08;19.15;;;13.40;99.90;;;;;;6185228;23;20384;-85
2023/09/27 03:54:51;;;;;;;26.83;19.13;;;13.40;99.90;;;;;;6185063;23;20013;-86
2023/09/27 03:57:17;;;;;;;25.33;18.27;;;13.30;99.90;;;;;;6184873;23;20047;-85
2023/09/27 03:59:43;;;;;;;25.27;19.25;;;13.30;99.90;;;;;;6211508;23;20091;-84
2023/09/27 04:02:09;;;;;;;26.00;19.65;;;13.40;99.90;;;;;;6211979;23;20047;-85
2023/09/27 04:04:34;;;;;;;25.50;19.02;;;13.30;99.90;;;;;;6185303;23;20051;-84
2023/09/27 04:07:00;;;;;;;24.17;18.05;;;13.30;99.90;;;;;;6212323;23;20016;-83
2023/09/27 04:09:27;;;;;;;25.10;17.80;;;13.30;99.90;;;;;;6185707;23;20032;-87
2023/09/27 04:11:52;;;;;;;24.83;18.05;;;13.30;99.90;;;;;;6185125;23;20028;-83
2023/09/27 04:14:18;;;;;;;24.30;18.98;;;13.30;99.90;;;;;;6212052;23;20106;-84
2023/09/27 04:16:44;;;;;;;23.50;17.73;;;13.30;99.90;;;;;;6184843;23;20096;-81
2023/09/27 04:19:10;;;;;;;24.42;18.42;;;13.30;99.90;;;;;;6212266;23;20712;-83
2023/09/27 04:21:36;;;;;;;23.25;18.33;;;13.30;99.90;;;;;;6212496;23;20062;-83
2023/09/27 04:24:05;;;;;;;25.17;17.17;;;13.30;99.90;;;;;;6188416;23;20020;-83
2023/09/27 04:26:31;;;;;;;25.63;18.15;;;13.30;99.90;;;;;;6161184;23;20020;-84
2023/09/27 04:28:56;;;;;;;24.13;17.02;;;13.20;99.90;;;;;;6212348;23;20116;-83
2023/09/27 04:31:22;;;;;;;28.02;17.48;;;13.20;99.90;;;;;;6186911;23;20080;-84
2023/09/27 04:33:49;;;;;;;23.73;18.13;;;13.20;99.90;;;;;;6187270;23;20091;-83
2023/09/27 04:36:17;;;;;;;24.58;18.55;;;13.20;99.90;;;;;;6162071;23;20323;-84
2023/09/27 04:38:47;;;;;;;24.63;17.95;;;13.20;99.90;;;;;;6187110;23;20331;-83
2023/09/27 04:41:14;;;;;;;27.05;18.10;;;13.20;99.90;;;;;;6162319;23;20046;-83
2023/09/27 04:43:44;;;;;;;25.40;19.38;;;13.20;99.90;;;;;;6213852;23;20016;-83
2023/09/27 04:46:17;;;;;;;28.77;19.88;;;13.20;99.90;;;;;;6213590;23;20027;-83
2023/09/27 04:48:43;;;;;;;24.77;18.92;;;13.20;99.90;;;;;;6213683;23;20017;-83
2023/09/27 04:51:09;;;;;;;25.95;18.30;;;13.10;99.90;;;;;;6213615;23;20016;-82
2023/09/27 04:53:37;;;;;;;27.75;18.75;;;13.20;99.90;;;;;;6213659;23;20323;-84
2023/09/27 04:56:06;;;;;;;27.95;18.38;;;13.10;99.90;;;;;;6213624;23;20024;-83
2023/09/27 04:58:33;;;;;;;28.40;20.70;;;13.20;99.90;;;;;;6213574;23;20095;-83
2023/09/27 05:00:58;;;;;;;26.88;19.33;;;13.10;99.90;;;;;;6186531;23;20025;-83
2023/09/27 05:03:24;;;;;;;23.23;19.20;;;13.10;99.90;;;;;;6213640;23;20019;-85
2023/09/27 05:05:50;;;;;;;24.73;19.23;;;13.10;99.90;;;;;;6186506;23;20400;-84
2023/09/27 05:08:16;;;;;;;27.50;19.33;;;13.00;99.90;;;;;;6186536;23;20025;-85
2023/09/27 05:10:42;;;;;;;26.52;19.23;;;13.00;99.90;;;;;;6186570;23;20055;-83
2023/09/27 05:13:07;;;;;;;25.27;19.17;;;13.10;99.90;;;;;;6213979;23;20035;-84
2023/09/27 05:15:33;;;;;;;26.35;18.70;;;13.10;99.90;;;;;;6186569;23;20021;-81
2023/09/27 05:17:59;;;;;;;26.20;19.13;;;13.00;99.90;;;;;;6162139;23;20016;-82
2023/09/27 05:20:24;;;;;;;27.10;19.65;;;13.00;99.90;;;;;;6213598;23;20369;-82
2023/09/27 05:22:53;;;;;;;26.60;18.67;;;13.00;99.90;;;;;;6213581;23;20021;-83
2023/09/27 05:25:18;;;;;;;25.23;18.75;;;13.00;99.90;;;;;;6186305;23;20082;-83
2023/09/27 05:27:44;;;;;;;24.05;18.17;;;13.00;99.90;;;;;;6187403;23;20024;-84
2023/09/27 05:30:11;;;;;;;25.67;19.50;;;13.00;99.90;;;;;;6161799;23;20052;-85
2023/09/27 05:32:37;;;;;;;29.17;18.77;;;12.90;99.90;;;;;;6213178;23;20032;-83
2023/09/27 05:35:04;;;;;;;25.45;19.00;;;13.00;99.90;;;;;;6186779;23;20024;-84
2023/09/27 05:37:31;;;;;;;27.40;19.25;;;13.00;99.90;;;;;;6186653;23;20075;-85
2023/09/27 05:39:57;;;;;;;28.67;21.25;;;13.00;99.90;;;;;;6186687;23;20028;-84
2023/09/27 05:42:23;;;;;;;30.45;21.83;;;13.00;99.90;;;;;;6212902;23;20091;-83
2023/09/27 05:44:49;;;;;;;29.80;21.25;;;13.00;99.90;;;;;;6213310;23;20017;-83
2023/09/27 05:47:15;;;;;;;26.60;20.10;;;13.00;99.90;;;;;;6212614;23;20075;-84
2023/09/27 05:49:42;;;;;;;26.48;19.25;;;13.00;99.90;;;;;;6161488;23;20082;-80
2023/09/27 05:52:12;;;;;;;25.95;19.45;;;13.00;99.90;;;;;;6213170;23;20056;-83
2023/09/27 05:54:41;;;;;;;27.08;20.27;;;13.00;99.90;;;;;;6186259;23;20024;-84
2023/09/27 05:57:07;;;;;;;34.35;21.90;;;13.00;99.90;;;;;;6160858;23;20020;-83
2023/09/27 05:59:35;;;;;;;36.03;25.13;;;13.00;99.90;;;;;;6161577;23;20096;-84
2023/09/27 06:02:02;;;;;;;32.20;24.58;;;13.10;99.90;;;;;;6161160;23;20020;-85
2023/09/27 06:04:27;;;;;;;33.80;23.98;;;13.10;99.90;;;;;;6212815;23;20020;-84
2023/09/27 06:06:53;;;;;;;35.72;26.25;;;13.10;99.90;;;;;;6186272;23;20017;-84
2023/09/27 06:09:19;;;;;;;35.88;25.95;;;13.20;99.90;;;;;;6161546;23;20052;-84
2023/09/27 06:11:46;;;;;;;35.22;25.33;;;13.30;99.90;;;;;;6213194;23;20082;-86
2023/09/27 06:14:12;;;;;;;39.00;26.55;;;13.30;99.90;;;;;;6161504;23;20357;-84
2023/09/27 06:16:39;;;;;;;40.25;27.13;;;13.40;99.90;;;;;;6161450;23;20076;-88
2023/09/27 06:19:05;;;;;;;38.80;26.98;;;13.50;99.90;;;;;;6186142;23;20078;-88
2023/09/27 06:21:31;;;;;;;36.67;27.80;;;13.50;99.90;;;;;;6186230;23;20013;-87
2023/09/27 06:23:57;;;;;;;37.53;27.42;;;13.50;99.90;;;;;;6186344;23;20515;-88
2023/09/27 06:26:23;;;;;;;38.20;26.50;;;13.60;99.90;;;;;;6213322;23;20017;-88
2023/09/27 06:28:48;;;;;;;35.75;26.95;;;13.60;99.90;;;;;;6186309;23;20032;-87
2023/09/27 06:31:14;;;;;;;37.03;25.65;;;13.60;99.90;;;;;;6186101;23;20471;-87
2023/09/27 06:33:40;;;;;;;37.30;25.45;;;13.50;99.90;;;;;;6185704;23;20031;-87
2023/09/27 06:36:08;;;;;;;36.80;26.35;;;13.50;99.90;;;;;;6213559;23;20021;-86
2023/09/27 06:38:33;;;;;;;38.33;27.15;;;13.50;99.90;;;;;;6186556;23;20020;-87
2023/09/27 06:41:00;;;;;;;36.83;26.67;;;13.60;99.90;;;;;;6212718;23;20092;-86
2023/09/27 06:43:28;;;;;;;37.58;26.58;;;13.60;99.90;;;;;;6186137;23;20024;-87
2023/09/27 06:45:54;;;;;;;38.75;27.20;;;13.60;99.90;;;;;;6185507;23;20021;-87
2023/09/27 06:48:22;;;;;;;40.78;25.95;;;13.60;99.90;;;;;;6212693;23;20445;-87
2023/09/27 06:50:48;;;;;;;39.17;26.60;;;13.60;99.90;;;;;;6160880;23;20032;-85
2023/09/27 06:53:14;;;;;;;40.75;27.83;;;13.70;99.90;;;;;;6185914;23;20286;-86
2023/09/27 06:55:41;;;;;;;39.55;28.98;;;13.70;99.90;;;;;;6186152;23;20051;-86
2023/09/27 06:58:07;;;;;;;42.45;29.40;;;13.70;99.90;;;;;;6185737;23;20107;-85
2023/09/27 07:00:32;;;;;;;49.70;30.15;;;13.80;99.90;;;;;;6160707;23;20776;-84
2023/09/27 07:02:58;;;;;;;43.08;30.45;;;13.80;99.90;;;;;;6212433;23;20056;-84
2023/09/27 07:05:26;;;;;;;41.55;31.05;;;13.80;99.90;;;;;;6213165;23;20043;-87
2023/09/27 07:07:53;;;;;;;46.97;30.27;;;13.90;99.90;;;;;;6160938;23;20047;-88
2023/09/27 07:10:19;;;;;;;46.92;32.30;;;13.90;99.90;;;;;;6186210;23;20028;-85
2023/09/27 07:12:46;;;;;;;44.03;31.63;;;14.00;99.90;;;;;;6186357;23;20353;-87
2023/09/27 07:15:13;;;;;;;48.45;32.10;;;14.10;99.90;;;;;;6161071;23;20039;-85
2023/09/27 07:17:40;;;;;;;47.03;32.10;;;14.10;99.90;;;;;;6212643;23;20044;-86
2023/09/27 07:22:40;;;;;;;45.03;30.45;;;14.20;99.90;;;;;;6185990;23;20098;-84
2023/09/27 07:25:14;;;;;;;44.00;31.40;;;14.20;99.90;;;;;;6185920;23;20021;-87
2023/09/27 07:27:43;;;;;;;42.47;29.33;;;14.30;99.90;;;;;;6160326;23;20142;-79
2023/09/27 07:30:17;;;;;;;40.47;29.60;;;14.40;99.90;;;;;;6211080;23;20032;-79
2023/09/27 07:32:45;;;;;;;45.83;31.30;;;14.40;99.90;;;;;;6184213;23;20025;-75
2023/09/27 07:35:14;;;;;;;45.05;31.48;;;14.50;99.90;;;;;;6210203;23;20025;-75
2023/09/27 07:37:41;;;;;;;42.42;30.45;;;14.50;99.90;;;;;;6183651;23;20020;-75
2023/09/27 07:40:10;;;;;;;46.95;31.42;;;14.50;99.90;;;;;;6210911;23;20488;-75
2023/09/27 07:42:43;;;;;;;51.38;31.15;;;14.60;99.90;;;;;;6184235;23;20025;-76
2023/09/27 07:45:16;;;;;;;41.28;31.25;;;14.60;99.90;;;;;;6183533;23;20056;-75
2023/09/27 07:47:42;;;;;;;48.40;31.35;;;14.70;99.90;;;;;;6210484;23;20078;-75
2023/09/27 07:50:10;;;;;;;44.25;31.65;;;14.70;99.90;;;;;;6183691;23;20062;-75
2023/09/27 07:52:37;;;;;;;46.67;32.53;;;14.70;99.90;;;;;;6183645;23;20020;-76
2023/09/27 07:55:09;;;;;;;43.58;31.85;;;14.80;99.90;;;;;;6183712;23;20025;-75
2023/09/27 07:57:36;;;;;;;47.03;32.38;;;14.80;99.90;;;;;;6158568;23;20445;-76
2023/09/27 08:00:08;;;;;;;46.63;31.60;;;14.80;99.90;;;;;;6183858;23;20048;-76
2023/09/27 08:02:34;;;;;;;47.97;33.90;;;14.90;99.90;;;;;;6210429;23;20035;-74
2023/09/27 08:05:09;;;;;;;43.78;33.03;;;14.90;99.90;;;;;;6211698;23;20013;-75
2023/09/27 08:07:35;;;;;;;45.10;32.05;;;15.00;99.90;;;;;;6212419;23;20411;-75
2023/09/27 08:10:02;;;;;;;45.50;30.88;;;15.00;99.90;;;;;;6212588;23;20052;-76
2023/09/27 08:12:31;;;;;;;49.50;32.83;;;15.00;99.90;;;;;;6212152;23;20106;-75
2023/09/27 08:15:00;;;;;;;44.72;32.85;;;15.00;99.90;;;;;;6212588;23;20031;-76
2023/09/27 08:17:26;;;;;;;42.83;29.95;;;15.10;99.90;;;;;;6212376;23;20020;-74
2023/09/27 08:19:52;;;;;;;44.08;32.08;;;15.10;99.90;;;;;;6185238;23;20104;-75
2023/09/27 08:22:19;;;;;;;50.17;32.90;;;15.10;99.90;;;;;;6212447;23;20048;-75
2023/09/27 08:24:44;;;;;;;44.97;33.30;;;15.20;99.90;;;;;;6185447;23;20433;-74
2023/09/27 08:27:11;;;;;;;48.47;33.08;;;15.30;99.90;;;;;;6211777;23;20024;-75
2023/09/27 08:29:36;;;;;;;43.20;31.85;;;15.30;99.90;;;;;;6212333;23;20013;-75
2023/09/27 08:32:02;;;;;;;47.08;33.92;;;15.40;99.90;;;;;;6212039;23;20174;-76
2023/09/27 08:34:28;;;;;;;52.72;34.70;;;15.40;99.90;;;;;;6184931;23;20097;-75
2023/09/27 08:36:54;;;;;;;57.17;33.80;;;15.50;99.90;;;;;;6185237;23;20027;-75
2023/09/27 08:39:20;;;;;;;45.83;33.15;;;15.60;99.90;;;;;;6185565;23;20441;-75
2023/09/27 08:41:46;;;;;;;45.95;33.55;;;15.70;99.90;;;;;;6212042;23;20031;-75
2023/09/27 08:44:12;;;;;;;46.45;33.08;;;15.70;99.90;;;;;;6185179;23;20055;-75
2023/09/27 08:46:39;;;;;;;50.78;35.65;;;15.80;99.90;;;;;;6212231;23;20024;-75
2023/09/27 08:49:08;;;;;;;51.10;35.72;;;15.80;99.90;;;;;;6211939;23;20016;-75
2023/09/27 08:51:35;;;;;;;46.03;33.45;;;15.90;99.90;;;;;;6211650;23;20071;-75
2023/09/27 08:54:02;;;;;;;51.28;33.58;;;15.90;99.90;;;;;;6211888;23;20017;-76
2023/09/27 08:56:30;;;;;;;39.53;28.20;;;16.00;99.90;;;;;;6211042;23;20017;-71
2023/09/27 08:58:57;;;;;;;41.00;29.50;;;16.10;99.90;;;;;;6211738;23;20016;-74
2023/09/27 09:01:24;;;;;;;49.03;31.38;;;16.40;99.90;;;;;;6184776;23;20078;-77
2023/09/27 09:03:51;;;;;;;36.22;26.80;;;16.60;99.90;;;;;;6211818;23;20067;-76
2023/09/27 09:06:18;;;;;;;40.15;27.10;;;16.70;99.90;;;;;;6212028;23;20349;-75
2023/09/27 09:08:46;;;;;;;39.70;26.85;;;16.90;99.90;;;;;;6211653;23;20020;-75
2023/09/27 09:11:16;;;;;;;39.47;27.30;;;17.10;99.90;;;;;;6159418;23;20024;-75
2023/09/27 09:14:03;;;;;;;34.67;26.20;;;17.20;99.90;;;;;;6211774;23;20016;-76
2023/09/27 09:16:39;;;;;;;36.35;25.27;;;17.30;99.90;;;;;;6184793;23;20028;-75
2023/09/27 09:19:38;;;;;;;35.95;26.70;;;17.50;99.90;;;;;;6211673;23;20026;-75
2023/09/27 09:22:09;;;;;;;37.20;24.88;;;17.60;99.90;;;;;;6130766;23;20020;-75
2023/09/27 09:24:42;;;;;;;39.97;28.27;;;17.70;99.90;;;;;;6211382;23;20016;-75
2023/09/27 09:27:13;;;;;;;33.50;26.75;;;17.70;99.90;;;;;;6211569;23;20027;-74
2023/09/27 09:29:47;;;;;;;33.55;24.90;;;17.90;99.90;;;;;;6211047;23;20364;-75
2023/09/27 09:32:18;;;;;;;35.50;26.02;;;17.90;99.90;;;;;;6210442;23;20021;-75
2023/09/27 09:34:48;;;;;;;37.38;27.20;;;18.00;99.90;;;;;;6184362;23;20389;-75
2023/09/27 09:37:17;;;;;;;34.67;25.40;;;18.10;99.90;;;;;;6184673;23;20031;-76
2023/09/27 09:39:44;;;;;;;35.63;24.67;;;18.10;99.90;;;;;;6211289;23;20017;-73
2023/09/27 09:42:10;;;;;;;30.73;23.17;;;18.20;99.90;;;;;;6211451;23;20388;-73
2023/09/27 09:44:36;;;;;;;35.42;23.50;;;18.20;99.90;;;;;;6184664;23;20024;-73
2023/09/27 09:47:12;;;;;;;30.27;23.17;;;18.30;99.90;;;;;;6184848;23;20434;-74
2023/09/27 09:49:38;;;;;;;37.50;23.80;;;18.40;99.90;;;;;;6211213;23;20031;-74
2023/09/27 09:52:04;;;;;;;31.73;23.35;;;18.50;99.90;;;;;;6184571;23;20028;-74
2023/09/27 09:54:37;;;;;;;31.63;23.80;;;18.50;99.90;;;;;;6211317;23;20013;-73
2023/09/27 09:57:07;;;;;;;32.78;24.17;;;18.50;99.90;;;;;;6184872;23;20016;-74
2023/09/27 09:59:49;;;;;;;32.38;23.90;;;18.60;99.90;;;;;;6160103;23;20035;-74
2023/09/27 10:02:22;;;;;;;33.10;25.52;;;18.50;99.90;;;;;;6211715;23;20314;-74
2023/09/27 10:04:55;;;;;;;35.55;24.88;;;18.50;99.90;;;;;;6184694;23;20028;-74
2023/09/27 10:07:22;;;;;;;35.72;24.60;;;18.40;99.90;;;;;;6184539;23;20013;-74
2023/09/27 10:09:49;;;;;;;32.45;23.55;;;18.50;99.90;;;;;;6211559;23;20021;-75
2023/09/27 10:12:17;;;;;;;34.33;23.70;;;18.50;99.90;;;;;;6211773;23;20025;-74
2023/09/27 10:14:45;;;;;;;29.88;22.35;;;18.70;99.90;;;;;;6185079;23;20092;-74
2023/09/27 10:17:22;;;;;;;34.85;22.05;;;18.80;99.90;;;;;;6185593;23;20051;-75
2023/09/27 10:20:19;;;;;;;30.85;21.48;;;18.80;99.90;;;;;;6212052;23;20083;-74
2023/09/27 10:22:50;;;;;;;30.25;22.02;;;18.90;99.90;;;;;;6211768;23;20028;-75
2023/09/27 10:25:27;;;;;;;30.92;21.42;;;18.90;99.90;;;;;;6212139;23;20022;-73
2023/09/27 10:27:59;;;;;;;32.58;21.40;;;18.90;99.90;;;;;;6184673;23;20035;-75
2023/09/27 10:30:26;;;;;;;28.05;21.25;;;19.00;99.90;;;;;;6212468;23;20444;-75
2023/09/27 10:33:23;;;;;;;32.13;24.55;;;19.00;99.90;;;;;;6211645;23;20107;-75
2023/09/27 10:36:00;;;;;;;34.40;24.27;;;19.00;99.90;;;;;;6211617;23;20024;-74
2023/09/27 10:38:49;;;;;;;33.08;24.50;;;19.10;99.90;;;;;;6210920;23;20345;-75
2023/09/27 10:41:33;;;;;;;34.60;24.17;;;19.10;99.90;;;;;;6210856;23;20020;-75
2023/09/27 10:44:02;;;;;;;31.15;23.42;;;19.10;99.90;;;;;;6184397;23;20024;-76
2023/09/27 10:46:40;;;;;;;35.53;24.20;;;19.10;99.90;;;;;;6211198;23;20044;-78
2023/09/27 10:49:06;;;;;;;34.53;23.70;;;19.30;99.90;;;;;;6211151;23;20110;-77
2023/09/27 10:51:31;;;;;;;28.38;21.65;;;19.30;99.90;;;;;;6210616;23;20752;-77
2023/09/27 10:53:57;;;;;;;27.42;20.58;;;19.40;99.90;;;;;;6210967;23;20059;-77
2023/09/27 10:56:23;;;;;;;28.55;21.25;;;19.50;99.90;;;;;;6183994;23;20678;-77
2023/09/27 10:58:49;;;;;;;28.90;20.52;;;19.60;99.90;;;;;;6210598;23;20099;-77
2023/09/27 11:01:23;;;;;;;28.05;19.90;;;19.70;99.90;;;;;;6211217;23;20009;-76
2023/09/27 11:03:59;;;;;;;29.13;20.92;;;19.80;99.90;;;;;;6183813;23;20056;-75
2023/09/27 11:06:25;;;;;;;26.42;18.50;;;19.80;99.90;;;;;;6183563;23;20013;-76
2023/09/27 11:08:51;;;;;;;23.15;18.58;;;19.80;99.90;;;;;;6210853;23;20013;-77
2023/09/27 11:11:17;;;;;;;23.75;17.80;;;19.80;99.90;;;;;;6210778;23;20099;-76
2023/09/27 11:13:43;;;;;;;20.88;16.00;;;19.90;99.90;;;;;;6210716;23;20436;-76
2023/09/27 11:16:14;;;;;;;24.00;17.70;;;19.90;99.90;;;;;;6184049;23;20016;-76
2023/09/27 11:18:51;;;;;;;20.88;16.75;;;19.90;99.90;;;;;;6183649;23;20013;-79
2023/09/27 11:21:17;;;;;;;23.25;16.25;;;20.00;99.90;;;;;;6210397;23;20076;-79
2023/09/27 11:23:58;;;;;;;21.70;15.88;;;20.00;99.90;;;;;;6211074;23;20114;-78
2023/09/27 11:26:29;;;;;;;20.92;16.52;;;20.00;99.90;;;;;;6184255;23;20028;-79
2023/09/27 11:28:59;;;;;;;24.88;18.65;;;20.00;99.90;;;;;;6211217;23;20075;-79
2023/09/27 11:31:27;;;;;;;24.00;17.55;;;20.00;99.90;;;;;;6183877;23;20024;-79
2023/09/27 11:33:53;;;;;;;24.23;17.77;;;20.00;99.90;;;;;;6211241;23;20025;-79
2023/09/27 11:36:18;;;;;;;24.63;16.95;;;19.90;99.90;;;;;;6210682;23;20024;-79
2023/09/27 11:38:51;;;;;;;24.15;16.63;;;20.00;99.90;;;;;;6211839;23;20013;-78
2023/09/27 11:41:19;;;;;;;;;;;20.00;99.90;;;;;;6213027;23;20027;-78
2023/09/27 11:43:45;;;;;;;22.50;16.42;;;20.10;99.90;;;;;;6212966;23;19962;-78
2023/09/27 11:46:11;;;;;;;21.52;15.68;;;20.10;99.90;;;;;;6212657;23;20340;-77
2023/09/27 11:48:39;;;;;;;21.02;14.95;;;20.10;99.90;;;;;;6213130;23;20048;-78
2023/09/27 11:51:05;;;;;;;27.02;15.65;;;20.10;99.90;;;;;;6186004;23;20016;-78
2023/09/27 11:53:31;;;;;;;29.27;16.90;;;20.20;99.90;;;;;;6212674;23;20019;-78
2023/09/27 11:55:59;;;;;;;21.58;14.38;;;20.20;99.90;;;;;;6185736;23;20331;-78
2023/09/27 11:58:25;;;;;;;17.55;12.65;;;20.20;99.90;;;;;;6212495;23;20020;-78
2023/09/27 12:00:51;;;;;;;18.52;13.68;;;20.20;99.90;;;;;;6185636;23;20021;-78
2023/09/27 12:03:17;;;;;;;19.50;13.48;;;20.20;99.90;;;;;;6185647;23;20167;-76
2023/09/27 12:05:44;;;;;;;20.50;12.80;;;20.20;99.90;;;;;;6185265;23;20024;-76
2023/09/27 12:08:10;;;;;;;17.52;12.43;;;20.20;99.90;;;;;;6185383;23;20024;-75
2023/09/27 12:10:36;;;;;;;18.25;11.73;;;20.20;99.90;;;;;;6212033;23;20130;-80
2023/09/27 12:13:02;;;;;;;13.38;10.40;;;20.30;99.90;;;;;;6185368;23;20437;-81
2023/09/27 12:15:28;;;;;;;13.15;9.55;;;20.30;99.90;;;;;;6212264;23;20025;-81
2023/09/27 12:17:54;;;;;;;12.43;9.20;;;20.30;99.90;;;;;;6212188;23;20047;-81
2023/09/27 12:20:19;;;;;;;13.93;8.88;;;20.30;99.90;;;;;;6185138;23;20029;-81
2023/09/27 12:22:45;;;;;;;13.35;9.63;;;20.30;99.90;;;;;;6212303;23;20020;-75
2023/09/27 12:25:11;;;;;;;11.02;9.73;;;20.30;99.90;;;;;;6211977;23;20337;-81
2023/09/27 12:27:37;;;;;;;15.65;8.95;;;20.40;99.90;;;;;;6212235;23;20024;-81
2023/09/27 12:30:05;;;;;;;12.30;9.13;;;20.40;99.90;;;;;;6185218;23;20170;-81
2023/09/27 12:32:31;;;;;;;11.65;8.38;;;20.40;99.90;;;;;;6185034;23;20029;-82